sensor_id;sensor_type;location;lat;lon;timestamp;pressure;altitude;pressure_sealevel;temperature;humidity
41078;BME280;26823;42.662;23.352;2023-12-14T01:51:57;157343.84;;;4.72;94.71
41078;BME280;26823;42.662;23.352;2023-12-14T01:54:23;157346.47;;;4.73;94.72
41078;BME280;26823;42.662;23.352;2023-12-14T01:56:48;157359.88;;;4.79;94.49
41078;BME280;26823;42.662;23.352;2023-12-14T01:59:14;157381.38;;;4.87;94.31
41078;BME280;26823;42.662;23.352;2023-12-14T02:01:42;157357.25;;;4.78;94.39
41078;BME280;26823;42.662;23.352;2023-12-14T02:04:08;157341.13;;;4.71;94.81
41078;BME280;26823;42.662;23.352;2023-12-14T02:06:34;157331.75;;;4.68;95.11
41078;BME280;26823;42.662;23.352;2023-12-14T02:09:01;157314.31;;;4.61;95.28
41078;BME280;26823;42.662;23.352;2023-12-14T02:11:26;157343.84;;;4.72;95.27
41078;BME280;26823;42.662;23.352;2023-12-14T02:13:52;157338.44;;;4.70;95.02
41078;BME280;26823;42.662;23.352;2023-12-14T02:16:17;157382.72;;;4.87;94.73
41078;BME280;26823;42.662;23.352;2023-12-14T02:18:43;157365.28;;;4.81;94.62
41078;BME280;26823;42.662;23.352;2023-12-14T02:21:09;157392.13;;;4.91;94.49
41078;BME280;26823;42.662;23.352;2023-12-14T02:23:35;157389.41;;;4.90;94.27
41078;BME280;26823;42.662;23.352;2023-12-14T02:26:00;157401.50;;;4.95;94.31
41078;BME280;26823;42.662;23.352;2023-12-14T02:28:26;157406.91;;;4.97;94.17
41078;BME280;26823;42.662;23.352;2023-12-14T02:30:51;157373.31;;;4.84;94.00
41078;BME280;26823;42.662;23.352;2023-12-14T02:33:17;157390.78;;;4.90;94.10
41078;BME280;26823;42.662;23.352;2023-12-14T02:35:43;157414.94;;;5.00;93.92
41078;BME280;26823;42.662;23.352;2023-12-14T02:38:08;157413.59;;;4.99;93.66
41078;BME280;26823;42.662;23.352;2023-12-14T02:40:34;157423.00;;;5.03;93.30
41078;BME280;26823;42.662;23.352;2023-12-14T02:42:59;157409.53;;;4.98;93.21
41078;BME280;26823;42.662;23.352;2023-12-14T02:45:25;157382.72;;;4.87;93.41
41078;BME280;26823;42.662;23.352;2023-12-14T02:47:50;157390.78;;;4.90;93.78
41078;BME280;26823;42.662;23.352;2023-12-14T02:50:17;157362.59;;;4.80;94.45
41078;BME280;26823;42.662;23.352;2023-12-14T02:52:42;157394.81;;;4.92;93.75
41078;BME280;26823;42.662;23.352;2023-12-14T02:55:08;157349.16;;;4.74;94.57
41078;BME280;26823;42.662;23.352;2023-12-14T02:57:33;157370.66;;;4.83;94.44
41078;BME280;26823;42.662;23.352;2023-12-14T02:59:59;157386.78;;;4.89;94.29
41078;BME280;26823;42.662;23.352;2023-12-14T03:02:25;157400.19;;;4.94;94.40
41078;BME280;26823;42.662;23.352;2023-12-14T03:04:51;157409.53;;;4.98;94.01
41078;BME280;26823;42.662;23.352;2023-12-14T03:07:16;157374.69;;;4.84;93.69
41078;BME280;26823;42.662;23.352;2023-12-14T03:09:42;157441.75;;;5.10;94.00
41078;BME280;26823;42.662;23.352;2023-12-14T03:12:10;157440.44;;;5.10;93.62
41078;BME280;26823;42.662;23.352;2023-12-14T03:14:35;157417.63;;;5.01;93.13
41078;BME280;26823;42.662;23.352;2023-12-14T03:17:01;157464.59;;;5.19;92.36
41078;BME280;26823;42.662;23.352;2023-12-14T03:19:27;157451.16;;;5.14;93.02
41078;BME280;26823;42.662;23.352;2023-12-14T03:21:53;157475.31;;;5.23;92.85
41078;BME280;26823;42.662;23.352;2023-12-14T03:24:18;157479.38;;;5.25;92.67
41078;BME280;26823;42.662;23.352;2023-12-14T03:26:44;157494.13;;;5.30;92.31
41078;BME280;26823;42.662;23.352;2023-12-14T03:29:10;157484.72;;;5.27;92.30
41078;BME280;26823;42.662;23.352;2023-12-14T03:31:35;157480.69;;;5.25;92.16
41078;BME280;26823;42.662;23.352;2023-12-14T03:34:01;157448.47;;;5.13;92.27
41078;BME280;26823;42.662;23.352;2023-12-14T03:36:26;157469.97;;;5.21;92.56
41078;BME280;26823;42.662;23.352;2023-12-14T03:38:53;157444.47;;;5.11;92.80
41078;BME280;26823;42.662;23.352;2023-12-14T03:41:18;157452.53;;;5.14;92.33
41078;BME280;26823;42.662;23.352;2023-12-14T03:43:44;157432.34;;;5.06;93.09
41078;BME280;26823;42.662;23.352;2023-12-14T03:46:10;157459.25;;;5.17;92.92
41078;BME280;26823;42.662;23.352;2023-12-14T03:48:35;157459.25;;;5.17;92.88
41078;BME280;26823;42.662;23.352;2023-12-14T03:51:04;157432.34;;;5.06;93.03
41078;BME280;26823;42.662;23.352;2023-12-14T03:53:30;157432.34;;;5.06;93.31
41078;BME280;26823;42.662;23.352;2023-12-14T03:55:57;157384.09;;;4.88;93.31
41078;BME280;26823;42.662;23.352;2023-12-14T03:58:22;157392.13;;;4.91;93.48
41078;BME280;26823;42.662;23.352;2023-12-14T04:00:48;157451.16;;;5.14;93.33
41078;BME280;26823;42.662;23.352;2023-12-14T04:03:13;157435.06;;;5.07;93.10
41078;BME280;26823;42.662;23.352;2023-12-14T04:05:38;157444.47;;;5.11;92.92
41078;BME280;26823;42.662;23.352;2023-12-14T04:08:04;157463.28;;;5.18;93.20
41078;BME280;26823;42.662;23.352;2023-12-14T04:10:30;157452.53;;;5.14;92.80
41078;BME280;26823;42.662;23.352;2023-12-14T04:12:55;157440.44;;;5.10;92.97
41078;BME280;26823;42.662;23.352;2023-12-14T04:15:21;157427.03;;;5.04;93.20
41078;BME280;26823;42.662;23.352;2023-12-14T04:17:46;157427.03;;;5.04;93.70
41078;BME280;26823;42.662;23.352;2023-12-14T04:20:13;157459.25;;;5.17;92.51
41078;BME280;26823;42.662;23.352;2023-12-14T04:22:39;157443.13;;;5.11;93.12
41078;BME280;26823;42.662;23.352;2023-12-14T04:25:05;157443.13;;;5.11;93.25
41078;BME280;26823;42.662;23.352;2023-12-14T04:27:30;157432.34;;;5.06;93.49
41078;BME280;26823;42.662;23.352;2023-12-14T04:29:56;157467.28;;;5.20;93.31
41078;BME280;26823;42.662;23.352;2023-12-14T04:32:21;157478.00;;;5.24;93.31
41078;BME280;26823;42.662;23.352;2023-12-14T04:34:47;157440.44;;;5.10;93.23
41078;BME280;26823;42.662;23.352;2023-12-14T04:37:12;157478.00;;;5.24;92.74
41078;BME280;26823;42.662;23.352;2023-12-14T04:39:37;157488.78;;;5.28;92.65
41078;BME280;26823;42.662;23.352;2023-12-14T04:42:03;157527.69;;;5.43;91.54
41078;BME280;26823;42.662;23.352;2023-12-14T04:44:28;157527.69;;;5.43;91.27
41078;BME280;26823;42.662;23.352;2023-12-14T04:46:54;157519.63;;;5.40;91.69
41078;BME280;26823;42.662;23.352;2023-12-14T04:49:19;157522.34;;;5.41;91.80
41078;BME280;26823;42.662;23.352;2023-12-14T04:51:45;157534.38;;;5.46;91.40
41078;BME280;26823;42.662;23.352;2023-12-14T04:54:10;157557.22;;;5.54;91.16
41078;BME280;26823;42.662;23.352;2023-12-14T04:56:36;157578.72;;;5.63;91.00
41078;BME280;26823;42.662;23.352;2023-12-14T04:59:01;157577.34;;;5.62;90.76
41078;BME280;26823;42.662;23.352;2023-12-14T05:01:27;157538.47;;;5.47;91.08
41078;BME280;26823;42.662;23.352;2023-12-14T05:03:53;157576.03;;;5.62;92.03
41078;BME280;26823;42.662;23.352;2023-12-14T05:06:19;157523.66;;;5.42;91.52
41078;BME280;26823;42.662;23.352;2023-12-14T05:08:44;157516.94;;;5.39;91.21
41078;BME280;26823;42.662;23.352;2023-12-14T05:11:11;157524.97;;;5.42;91.30
41078;BME280;26823;42.662;23.352;2023-12-14T05:13:37;157530.38;;;5.44;91.01
41078;BME280;26823;42.662;23.352;2023-12-14T05:16:03;157555.91;;;5.54;90.60
41078;BME280;26823;42.662;23.352;2023-12-14T05:18:28;157572.00;;;5.60;90.76
41078;BME280;26823;42.662;23.352;2023-12-14T05:20:54;157580.03;;;5.63;90.63
41078;BME280;26823;42.662;23.352;2023-12-14T05:23:20;157585.44;;;5.65;90.47
41078;BME280;26823;42.662;23.352;2023-12-14T05:25:45;157581.41;;;5.64;90.38
41078;BME280;26823;42.662;23.352;2023-12-14T05:28:11;157576.03;;;5.62;90.59
41078;BME280;26823;42.662;23.352;2023-12-14T05:30:36;157565.28;;;5.58;90.75
41078;BME280;26823;42.662;23.352;2023-12-14T05:33:02;157582.75;;;5.64;90.51
41078;BME280;26823;42.662;23.352;2023-12-14T05:35:27;157557.22;;;5.54;90.78
41078;BME280;26823;42.662;23.352;2023-12-14T05:37:53;157545.16;;;5.50;91.12
41078;BME280;26823;42.662;23.352;2023-12-14T05:40:18;157508.91;;;5.36;91.81
41078;BME280;26823;42.662;23.352;2023-12-14T05:42:44;157514.25;;;5.38;92.74
41078;BME280;26823;42.662;23.352;2023-12-14T05:45:09;157524.97;;;5.42;92.31
41078;BME280;26823;42.662;23.352;2023-12-14T05:47:35;157524.97;;;5.42;92.17
41078;BME280;26823;42.662;23.352;2023-12-14T05:50:01;157534.38;;;5.46;91.65
41078;BME280;26823;42.662;23.352;2023-12-14T05:52:27;157491.44;;;5.29;92.33
41078;BME280;26823;42.662;23.352;2023-12-14T05:54:53;157475.31;;;5.23;93.05
41078;BME280;26823;42.662;23.352;2023-12-14T05:57:18;157457.88;;;5.16;93.44
41078;BME280;26823;42.662;23.352;2023-12-14T05:59:43;157475.31;;;5.23;93.58
41078;BME280;26823;42.662;23.352;2023-12-14T06:02:09;157464.59;;;5.19;93.53
41078;BME280;26823;42.662;23.352;2023-12-14T06:04:34;157484.72;;;5.27;93.15
41078;BME280;26823;42.662;23.352;2023-12-14T06:07:00;157468.59;;;5.20;93.86
41078;BME280;26823;42.662;23.352;2023-12-14T06:09:26;157484.72;;;5.27;93.33
41078;BME280;26823;42.662;23.352;2023-12-14T06:11:59;157478.00;;;5.24;92.97
41078;BME280;26823;42.662;23.352;2023-12-14T06:14:26;157467.28;;;5.20;93.39
41078;BME280;26823;42.662;23.352;2023-12-14T06:16:51;157526.34;;;5.43;93.16
41078;BME280;26823;42.662;23.352;2023-12-14T06:19:16;157519.63;;;5.40;92.40
41078;BME280;26823;42.662;23.352;2023-12-14T06:21:42;157550.50;;;5.52;92.36
41078;BME280;26823;42.662;23.352;2023-12-14T06:24:07;157546.50;;;5.50;92.38
41078;BME280;26823;42.662;23.352;2023-12-14T06:26:33;157542.47;;;5.49;92.01
41078;BME280;26823;42.662;23.352;2023-12-14T06:28:58;157538.47;;;5.47;92.05
41078;BME280;26823;42.662;23.352;2023-12-14T06:31:23;157524.97;;;5.42;92.41
41078;BME280;26823;42.662;23.352;2023-12-14T06:33:49;157546.50;;;5.50;92.46
41078;BME280;26823;42.662;23.352;2023-12-14T06:36:18;157511.56;;;5.37;92.74
41078;BME280;26823;42.662;23.352;2023-12-14T06:38:44;157551.88;;;5.52;92.30
41078;BME280;26823;42.662;23.352;2023-12-14T06:41:18;157585.44;;;5.65;91.45
41078;BME280;26823;42.662;23.352;2023-12-14T06:43:43;157584.06;;;5.65;90.13
41078;BME280;26823;42.662;23.352;2023-12-14T06:46:09;157623.00;;;5.80;89.12
41078;BME280;26823;42.662;23.352;2023-12-14T06:48:34;157637.81;;;5.85;89.22
41078;BME280;26823;42.662;23.352;2023-12-14T06:51:00;157678.16;;;6.01;87.75
41078;BME280;26823;42.662;23.352;2023-12-14T06:53:25;157709.03;;;6.13;87.04
41078;BME280;26823;42.662;23.352;2023-12-14T06:55:51;157687.56;;;6.04;86.24
41078;BME280;26823;42.662;23.352;2023-12-14T06:58:17;157694.25;;;6.07;86.09
41078;BME280;26823;42.662;23.352;2023-12-14T07:00:42;157741.28;;;6.25;86.08
41078;BME280;26823;42.662;23.352;2023-12-14T07:03:08;157753.38;;;6.30;85.60
41078;BME280;26823;42.662;23.352;2023-12-14T07:05:33;157781.56;;;6.41;85.60
41078;BME280;26823;42.662;23.352;2023-12-14T07:07:59;157831.28;;;6.60;85.06
41078;BME280;26823;42.662;23.352;2023-12-14T07:10:24;157796.38;;;6.46;84.60
41078;BME280;26823;42.662;23.352;2023-12-14T07:12:50;157795.00;;;6.46;84.43
41078;BME280;26823;42.662;23.352;2023-12-14T07:15:15;157809.81;;;6.51;85.13
41078;BME280;26823;42.662;23.352;2023-12-14T07:17:41;157816.50;;;6.54;84.64
41078;BME280;26823;42.662;23.352;2023-12-14T07:20:07;157864.91;;;6.73;84.62
41078;BME280;26823;42.662;23.352;2023-12-14T07:22:32;157889.09;;;6.82;82.93
41078;BME280;26823;42.662;23.352;2023-12-14T07:24:58;157906.53;;;6.89;83.28
41078;BME280;26823;42.662;23.352;2023-12-14T07:27:23;157948.22;;;7.05;83.32
41078;BME280;26823;42.662;23.352;2023-12-14T07:29:49;157965.69;;;7.11;82.55
41078;BME280;26823;42.662;23.352;2023-12-14T07:32:15;157983.13;;;7.18;82.07
41078;BME280;26823;42.662;23.352;2023-12-14T07:34:41;158043.66;;;7.41;81.68
41078;BME280;26823;42.662;23.352;2023-12-14T07:37:06;158040.97;;;7.40;81.01
41078;BME280;26823;42.662;23.352;2023-12-14T07:39:32;158036.94;;;7.39;81.25
41078;BME280;26823;42.662;23.352;2023-12-14T07:41:57;158074.56;;;7.53;80.57
41078;BME280;26823;42.662;23.352;2023-12-14T07:44:23;158073.25;;;7.53;79.90
41078;BME280;26823;42.662;23.352;2023-12-14T07:46:51;158101.47;;;7.63;80.61
41078;BME280;26823;42.662;23.352;2023-12-14T07:49:16;158133.75;;;7.76;80.08
41078;BME280;26823;42.662;23.352;2023-12-14T07:51:46;158184.81;;;7.95;79.17
41078;BME280;26823;42.662;23.352;2023-12-14T07:54:11;158190.22;;;7.97;77.97
41078;BME280;26823;42.662;23.352;2023-12-14T07:56:37;158214.41;;;8.07;78.30
41078;BME280;26823;42.662;23.352;2023-12-14T07:59:02;158240.00;;;8.16;77.40
41078;BME280;26823;42.662;23.352;2023-12-14T08:01:31;158253.44;;;8.22;76.91
41078;BME280;26823;42.662;23.352;2023-12-14T08:03:57;158262.88;;;8.25;76.46
41078;BME280;26823;42.662;23.352;2023-12-14T08:06:22;158258.84;;;8.24;77.18
41078;BME280;26823;42.662;23.352;2023-12-14T08:08:48;158299.19;;;8.39;77.03
41078;BME280;26823;42.662;23.352;2023-12-14T08:11:13;158375.94;;;8.69;74.94
41078;BME280;26823;42.662;23.352;2023-12-14T08:13:39;158405.53;;;8.80;75.01
41078;BME280;26823;42.662;23.352;2023-12-14T08:16:06;158384.03;;;8.72;73.64
41078;BME280;26823;42.662;23.352;2023-12-14T08:18:32;158431.13;;;8.90;72.77
41078;BME280;26823;42.662;23.352;2023-12-14T08:20:58;158464.75;;;9.03;73.12
41078;BME280;26823;42.662;23.352;2023-12-14T08:23:23;158478.22;;;9.08;72.80
41078;BME280;26823;42.662;23.352;2023-12-14T08:25:52;158468.78;;;9.04;71.98
41078;BME280;26823;42.662;23.352;2023-12-14T08:28:18;158480.91;;;9.09;72.65
41078;BME280;26823;42.662;23.352;2023-12-14T08:30:43;158541.47;;;9.32;71.80
41078;BME280;26823;42.662;23.352;2023-12-14T08:33:09;158569.75;;;9.43;71.45
41078;BME280;26823;42.662;23.352;2023-12-14T08:35:34;158596.69;;;9.53;71.62
41078;BME280;26823;42.662;23.352;2023-12-14T08:38:00;158569.75;;;9.43;71.57
41078;BME280;26823;42.662;23.352;2023-12-14T08:40:25;158607.44;;;9.57;71.74
41078;BME280;26823;42.662;23.352;2023-12-14T08:42:51;158670.72;;;9.82;71.29
41078;BME280;26823;42.662;23.352;2023-12-14T08:45:16;158668.09;;;9.81;70.50
41078;BME280;26823;42.662;23.352;2023-12-14T08:47:42;158692.31;;;9.90;69.99
41078;BME280;26823;42.662;23.352;2023-12-14T08:50:08;158724.63;;;10.02;69.45
41078;BME280;26823;42.662;23.352;2023-12-14T08:52:33;158758.31;;;10.15;69.37
41078;BME280;26823;42.662;23.352;2023-12-14T08:54:59;158773.09;;;10.21;68.63
41078;BME280;26823;42.662;23.352;2023-12-14T08:57:24;158818.97;;;10.38;67.83
41078;BME280;26823;42.662;23.352;2023-12-14T08:59:50;158789.28;;;10.27;67.52
41078;BME280;26823;42.662;23.352;2023-12-14T09:02:15;158866.16;;;10.56;67.79
41078;BME280;26823;42.662;23.352;2023-12-14T09:04:41;158901.16;;;10.70;66.92
41078;BME280;26823;42.662;23.352;2023-12-14T09:07:06;158938.88;;;10.84;65.73
41078;BME280;26823;42.662;23.352;2023-12-14T09:09:31;158980.66;;;11.00;64.72
41078;BME280;26823;42.662;23.352;2023-12-14T09:11:58;158921.38;;;10.77;64.63
41078;BME280;26823;42.662;23.352;2023-12-14T09:14:23;159013.03;;;11.13;64.75
41078;BME280;26823;42.662;23.352;2023-12-14T09:16:48;159065.63;;;11.33;64.07
41078;BME280;26823;42.662;23.352;2023-12-14T09:19:14;159103.34;;;11.47;63.53
41078;BME280;26823;42.662;23.352;2023-12-14T09:21:39;158913.31;;;10.74;64.66
41078;BME280;26823;42.662;23.352;2023-12-14T09:24:04;158889.03;;;10.65;64.97
41078;BME280;26823;42.662;23.352;2023-12-14T09:26:30;158951.03;;;10.89;65.31
41078;BME280;26823;42.662;23.352;2023-12-14T09:28:55;158967.19;;;10.95;65.17
41078;BME280;26823;42.662;23.352;2023-12-14T09:31:21;158990.13;;;11.04;64.86
41078;BME280;26823;42.662;23.352;2023-12-14T09:33:46;159033.25;;;11.20;64.14
41078;BME280;26823;42.662;23.352;2023-12-14T09:36:12;159011.66;;;11.12;63.33
41078;BME280;26823;42.662;23.352;2023-12-14T09:38:37;158980.66;;;11.00;64.36
41078;BME280;26823;42.662;23.352;2023-12-14T09:41:03;158999.56;;;11.07;64.30
41078;BME280;26823;42.662;23.352;2023-12-14T09:43:29;159033.25;;;11.20;64.30
41078;BME280;26823;42.662;23.352;2023-12-14T09:45:55;159035.94;;;11.21;64.23
41078;BME280;26823;42.662;23.352;2023-12-14T09:48:22;159069.66;;;11.34;62.68
41078;BME280;26823;42.662;23.352;2023-12-14T09:50:48;159102.00;;;11.47;62.57
41078;BME280;26823;42.662;23.352;2023-12-14T09:53:14;159166.72;;;11.71;62.45
41078;BME280;26823;42.662;23.352;2023-12-14T09:55:39;159204.50;;;11.86;62.31
41078;BME280;26823;42.662;23.352;2023-12-14T09:58:05;159254.44;;;12.05;62.04
41078;BME280;26823;42.662;23.352;2023-12-14T10:00:38;159298.94;;;12.22;61.33
41078;BME280;26823;42.662;23.352;2023-12-14T10:03:24;159331.31;;;12.34;61.09
41078;BME280;26823;42.662;23.352;2023-12-14T10:05:52;159359.66;;;12.45;60.10
41078;BME280;26823;42.662;23.352;2023-12-14T10:08:18;159359.66;;;12.45;59.77
41078;BME280;26823;42.662;23.352;2023-12-14T10:10:44;159332.66;;;12.35;59.74
41078;BME280;26823;42.662;23.352;2023-12-14T10:13:10;159334.03;;;12.35;59.91
41078;BME280;26823;42.662;23.352;2023-12-14T10:15:43;159335.34;;;12.36;59.61
41078;BME280;26823;42.662;23.352;2023-12-14T10:18:08;159335.34;;;12.36;59.96
41078;BME280;26823;42.662;23.352;2023-12-14T10:20:34;159334.03;;;12.35;59.91
41078;BME280;26823;42.662;23.352;2023-12-14T10:22:59;159344.81;;;12.39;60.09
41078;BME280;26823;42.662;23.352;2023-12-14T10:25:25;159339.38;;;12.37;60.25
41078;BME280;26823;42.662;23.352;2023-12-14T10:27:51;159315.13;;;12.28;60.18
41078;BME280;26823;42.662;23.352;2023-12-14T10:30:20;159274.66;;;12.13;60.13
41078;BME280;26823;42.662;23.352;2023-12-14T10:32:49;159273.28;;;12.12;60.40
41078;BME280;26823;42.662;23.352;2023-12-14T10:35:15;159267.94;;;12.10;60.75
41078;BME280;26823;42.662;23.352;2023-12-14T10:37:42;159281.41;;;12.15;60.54
41078;BME280;26823;42.662;23.352;2023-12-14T10:40:09;159274.66;;;12.13;60.58
41078;BME280;26823;42.662;23.352;2023-12-14T10:42:38;159273.28;;;12.12;60.70
41078;BME280;26823;42.662;23.352;2023-12-14T10:45:08;159266.56;;;12.10;61.26
41078;BME280;26823;42.662;23.352;2023-12-14T10:47:37;159255.78;;;12.05;61.09
41078;BME280;26823;42.662;23.352;2023-12-14T10:50:05;159265.22;;;12.09;60.87
41078;BME280;26823;42.662;23.352;2023-12-14T10:52:32;159249.03;;;12.03;62.59
41078;BME280;26823;42.662;23.352;2023-12-14T10:55:06;159235.53;;;11.98;64.28
41078;BME280;26823;42.662;23.352;2023-12-14T10:57:33;159182.91;;;11.78;65.34
41078;BME280;26823;42.662;23.352;2023-12-14T11:00:00;159200.41;;;11.84;66.67
41078;BME280;26823;42.662;23.352;2023-12-14T11:02:25;159189.63;;;11.80;68.35
41078;BME280;26823;42.662;23.352;2023-12-14T11:05:00;159103.34;;;11.47;70.81
41078;BME280;26823;42.662;23.352;2023-12-14T11:10:22;159106.03;;;11.48;73.07
41078;BME280;26823;42.662;23.352;2023-12-14T11:12:55;159075.06;;;11.36;74.04
41078;BME280;26823;42.662;23.352;2023-12-14T11:15:22;159035.94;;;11.21;74.78
41078;BME280;26823;42.662;23.352;2023-12-14T11:23:13;158941.56;;;10.85;75.06
41078;BME280;26823;42.662;23.352;2023-12-14T11:25:40;158903.88;;;10.71;74.60
41078;BME280;26823;42.662;23.352;2023-12-14T11:28:09;158843.25;;;10.48;74.76
41078;BME280;26823;42.662;23.352;2023-12-14T11:30:36;158849.97;;;10.50;74.76
41078;BME280;26823;42.662;23.352;2023-12-14T11:33:02;158802.75;;;10.32;74.11
41078;BME280;26823;42.662;23.352;2023-12-14T11:35:27;158777.19;;;10.22;74.74
41078;BME280;26823;42.662;23.352;2023-12-14T11:37:53;158715.19;;;9.99;74.57
41078;BME280;26823;42.662;23.352;2023-12-14T11:40:18;158746.16;;;10.10;74.81
41078;BME280;26823;42.662;23.352;2023-12-14T11:43:03;158701.75;;;9.93;74.44
41078;BME280;26823;42.662;23.352;2023-12-14T11:45:36;158680.16;;;9.85;74.35
41078;BME280;26823;42.662;23.352;2023-12-14T11:48:07;158672.09;;;9.82;74.80
41078;BME280;26823;42.662;23.352;2023-12-14T11:50:33;158657.28;;;9.76;74.51
41078;BME280;26823;42.662;23.352;2023-12-14T11:53:00;158658.66;;;9.77;74.33
41078;BME280;26823;42.662;23.352;2023-12-14T11:55:26;158658.66;;;9.77;74.74
41078;BME280;26823;42.662;23.352;2023-12-14T11:57:52;158651.91;;;9.74;73.93
41078;BME280;26823;42.662;23.352;2023-12-14T12:00:23;158633.03;;;9.67;73.90
41078;BME280;26823;42.662;23.352;2023-12-14T12:02:49;158602.09;;;9.55;74.37
41078;BME280;26823;42.662;23.352;2023-12-14T12:05:14;158606.13;;;9.57;74.83
41078;BME280;26823;42.662;23.352;2023-12-14T12:07:44;158614.19;;;9.60;74.93
41078;BME280;26823;42.662;23.352;2023-12-14T12:10:10;158554.94;;;9.37;74.24
41078;BME280;26823;42.662;23.352;2023-12-14T12:12:36;158602.09;;;9.55;74.76
41078;BME280;26823;42.662;23.352;2023-12-14T12:15:02;158596.69;;;9.53;73.78
41078;BME280;26823;42.662;23.352;2023-12-14T12:17:28;158552.28;;;9.36;74.10
41078;BME280;26823;42.662;23.352;2023-12-14T12:19:53;158486.31;;;9.11;74.68
41078;BME280;26823;42.662;23.352;2023-12-14T12:22:19;158515.94;;;9.22;74.57
41078;BME280;26823;42.662;23.352;2023-12-14T12:24:44;158488.97;;;9.12;74.85
41078;BME280;26823;42.662;23.352;2023-12-14T12:27:09;158494.38;;;9.14;75.19
41078;BME280;26823;42.662;23.352;2023-12-14T12:29:35;158467.47;;;9.04;75.43
41078;BME280;26823;42.662;23.352;2023-12-14T12:32:00;158459.41;;;9.01;74.95
41078;BME280;26823;42.662;23.352;2023-12-14T12:34:26;158451.28;;;8.97;74.99
41078;BME280;26823;42.662;23.352;2023-12-14T12:36:51;158463.44;;;9.02;75.06
41078;BME280;26823;42.662;23.352;2023-12-14T12:39:17;158447.28;;;8.96;74.94
41078;BME280;26823;42.662;23.352;2023-12-14T12:41:43;158439.16;;;8.93;75.32
41078;BME280;26823;42.662;23.352;2023-12-14T12:44:08;158431.13;;;8.90;75.44
41078;BME280;26823;42.662;23.352;2023-12-14T12:46:37;158455.31;;;8.99;75.89
41078;BME280;26823;42.662;23.352;2023-12-14T12:49:04;158441.88;;;8.94;75.78
41078;BME280;26823;42.662;23.352;2023-12-14T12:51:30;158404.22;;;8.79;75.37
41078;BME280;26823;42.662;23.352;2023-12-14T12:53:57;158427.09;;;8.88;75.80
41078;BME280;26823;42.662;23.352;2023-12-14T12:56:26;158406.91;;;8.80;76.76
41078;BME280;26823;42.662;23.352;2023-12-14T12:58:53;158370.56;;;8.67;77.22
41078;BME280;26823;42.662;23.352;2023-12-14T13:01:21;158353.03;;;8.60;76.88
41078;BME280;26823;42.662;23.352;2023-12-14T13:03:54;158327.50;;;8.50;77.63
41078;BME280;26823;42.662;23.352;2023-12-14T13:06:23;158343.63;;;8.56;77.06
41078;BME280;26823;42.662;23.352;2023-12-14T13:08:48;158340.97;;;8.55;78.12
41078;BME280;26823;42.662;23.352;2023-12-14T13:11:14;158314.00;;;8.45;78.22
41078;BME280;26823;42.662;23.352;2023-12-14T13:13:40;158297.88;;;8.39;78.55
41078;BME280;26823;42.662;23.352;2023-12-14T13:16:05;158285.72;;;8.34;78.61
41078;BME280;26823;42.662;23.352;2023-12-14T13:18:31;158289.75;;;8.36;79.28
41078;BME280;26823;42.662;23.352;2023-12-14T13:20:56;158238.66;;;8.16;78.52
41078;BME280;26823;42.662;23.352;2023-12-14T13:23:22;158268.25;;;8.27;78.47
41078;BME280;26823;42.662;23.352;2023-12-14T13:25:48;158254.81;;;8.22;78.97
41078;BME280;26823;42.662;23.352;2023-12-14T13:28:13;158246.72;;;8.19;79.03
41078;BME280;26823;42.662;23.352;2023-12-14T13:30:39;158211.78;;;8.06;79.88
41078;BME280;26823;42.662;23.352;2023-12-14T13:33:04;158214.41;;;8.07;79.73
41078;BME280;26823;42.662;23.352;2023-12-14T13:35:31;158209.06;;;8.05;80.03
41078;BME280;26823;42.662;23.352;2023-12-14T13:37:57;158190.22;;;7.97;80.26
41078;BME280;26823;42.662;23.352;2023-12-14T13:40:22;158143.16;;;7.79;79.88
41078;BME280;26823;42.662;23.352;2023-12-14T13:42:48;158155.25;;;7.84;79.19
41078;BME280;26823;42.662;23.352;2023-12-14T13:45:13;158124.31;;;7.72;80.40
41078;BME280;26823;42.662;23.352;2023-12-14T13:47:39;158105.47;;;7.65;80.66
41078;BME280;26823;42.662;23.352;2023-12-14T13:50:05;158108.19;;;7.66;80.93
41078;BME280;26823;42.662;23.352;2023-12-14T13:52:30;158096.13;;;7.61;80.46
41078;BME280;26823;42.662;23.352;2023-12-14T13:54:56;158118.94;;;7.70;79.91
41078;BME280;26823;42.662;23.352;2023-12-14T13:57:22;158092.03;;;7.60;80.48
41078;BME280;26823;42.662;23.352;2023-12-14T13:59:47;158040.97;;;7.40;80.02
41078;BME280;26823;42.662;23.352;2023-12-14T14:02:13;158065.16;;;7.49;79.83
41078;BME280;26823;42.662;23.352;2023-12-14T14:04:38;158043.66;;;7.41;79.80
41078;BME280;26823;42.662;23.352;2023-12-14T14:07:04;158061.13;;;7.48;79.67
41078;BME280;26823;42.662;23.352;2023-12-14T14:09:30;158081.28;;;7.56;78.76
41078;BME280;26823;42.662;23.352;2023-12-14T14:11:55;158086.69;;;7.58;79.46
41078;BME280;26823;42.662;23.352;2023-12-14T14:14:21;158078.59;;;7.55;78.79
41078;BME280;26823;42.662;23.352;2023-12-14T14:16:48;158066.53;;;7.50;78.64
41078;BME280;26823;42.662;23.352;2023-12-14T14:19:13;158081.28;;;7.56;78.69
41078;BME280;26823;42.662;23.352;2023-12-14T14:21:39;158090.72;;;7.59;78.97
41078;BME280;26823;42.662;23.352;2023-12-14T14:24:05;158101.47;;;7.63;78.27
41078;BME280;26823;42.662;23.352;2023-12-14T14:26:31;158097.44;;;7.62;78.02
41078;BME280;26823;42.662;23.352;2023-12-14T14:28:57;158110.88;;;7.67;77.04
41078;BME280;26823;42.662;23.352;2023-12-14T14:31:27;158132.41;;;7.75;77.68
41078;BME280;26823;42.662;23.352;2023-12-14T14:33:57;158117.59;;;7.70;76.95
41078;BME280;26823;42.662;23.352;2023-12-14T14:36:22;158112.19;;;7.67;76.60
41078;BME280;26823;42.662;23.352;2023-12-14T14:38:48;158112.19;;;7.67;76.96
41078;BME280;26823;42.662;23.352;2023-12-14T14:41:13;158106.84;;;7.65;77.25